createdAt,value
2022-12-20T00:01:45.439Z,56.55
2022-12-20T00:04:50.288Z,56.13
2022-12-20T00:07:53.777Z,60.58
2022-12-20T00:10:57.439Z,55.28
2022-12-20T00:14:03.098Z,50.70
2022-12-20T00:17:06.387Z,53.10
2022-12-20T00:20:14.871Z,53.90
2022-12-20T00:23:18.630Z,51.58
2022-12-20T00:26:27.837Z,56.83
2022-12-20T00:29:32.554Z,50.25
2022-12-20T00:32:36.308Z,54.95
2022-12-20T00:35:46.872Z,52.72
2022-12-20T00:38:52.352Z,50.60
2022-12-20T00:42:00.633Z,46.90
2022-12-20T00:45:10.384Z,50.13
2022-12-20T00:48:15.823Z,49.75
2022-12-20T00:51:26.265Z,48.88
2022-12-20T00:54:29.540Z,52.15
2022-12-20T00:57:34.882Z,57.03
2022-12-20T01:00:40.955Z,50.20
2022-12-20T01:03:47.425Z,54.85
2022-12-20T01:06:54.444Z,52.50
2022-12-20T01:10:00.293Z,52.88
2022-12-20T01:13:03.726Z,57.20
2022-12-20T01:16:15.561Z,50.05
2022-12-20T01:19:20.949Z,54.22
2022-12-20T01:22:30.573Z,53.40
2022-12-20T01:25:58.662Z,49.67
2022-12-20T01:29:22.668Z,49.83
2022-12-20T01:32:45.796Z,52.50
2022-12-20T01:36:17.273Z,52.03
2022-12-20T01:39:22.095Z,52.47
2022-12-20T01:42:26.754Z,55.75
2022-12-20T01:45:31.785Z,53.20
2022-12-20T01:48:51.268Z,56.60
2022-12-20T01:52:01.702Z,55.00
2022-12-20T01:55:13.935Z,58.70
2022-12-20T01:58:23.955Z,61.35
2022-12-20T02:01:28.029Z,62.42
2022-12-20T02:04:32.282Z,53.47
2022-12-20T02:07:38.797Z,57.80
2022-12-20T02:11:01.700Z,51.80
2022-12-20T02:14:17.828Z,55.03
2022-12-20T02:17:39.081Z,55.45
2022-12-20T02:21:13.918Z,52.80
2022-12-20T02:24:42.642Z,54.63
2022-12-20T02:28:05.339Z,51.40
2022-12-20T02:31:17.902Z,53.55
2022-12-20T02:34:24.997Z,50.10
2022-12-20T02:37:30.386Z,56.25
2022-12-20T02:40:40.669Z,62.88
2022-12-20T02:44:28.699Z,52.05
2022-12-20T02:47:57.018Z,53.97
2022-12-20T02:51:24.546Z,57.35
2022-12-20T02:54:48.158Z,61.28
2022-12-20T02:58:00.434Z,52.22
2022-12-20T03:01:13.298Z,47.78
2022-12-20T03:04:21.268Z,57.65
2022-12-20T03:07:24.538Z,64.35
2022-12-20T03:10:28.918Z,60.92
2022-12-20T03:13:32.419Z,58.95
2022-12-20T03:16:43.564Z,63.63
2022-12-20T03:19:55.368Z,55.83
2022-12-20T03:22:59.585Z,56.55
2022-12-20T03:26:04.159Z,55.40
2022-12-20T03:29:12.755Z,61.10
2022-12-20T03:32:21.155Z,56.45
2022-12-20T03:35:28.185Z,60.15
2022-12-20T03:38:34.738Z,60.43
2022-12-20T03:41:43.732Z,55.72
2022-12-20T03:44:51.405Z,64.30
2022-12-20T03:47:54.920Z,54.35
2022-12-20T03:51:02.290Z,63.38
2022-12-20T03:54:06.221Z,50.70
2022-12-20T03:57:26.996Z,51.78
2022-12-20T04:00:31.815Z,54.25
2022-12-20T04:03:54.003Z,54.95
2022-12-20T04:07:05.327Z,43.97
2022-12-20T04:10:14.435Z,64.60
2022-12-20T04:13:24.100Z,49.80
2022-12-20T04:16:30.829Z,50.83
2022-12-20T04:19:34.224Z,52.97
2022-12-20T04:22:44.953Z,52.28
2022-12-20T04:25:51.316Z,57.63
2022-12-20T04:28:58.366Z,51.08
2022-12-20T04:34:50.488Z,51.75
2022-12-20T04:38:14.029Z,52.90
2022-12-20T04:41:40.228Z,52.25
2022-12-20T04:45:10.322Z,50.10
2022-12-20T04:48:46.168Z,48.25
2022-12-20T04:51:43.680Z,55.45
2022-12-20T04:54:55.104Z,47.28
2022-12-20T04:58:07.491Z,47.47
2022-12-20T05:01:13.924Z,45.38
2022-12-20T05:04:25.332Z,50.25
2022-12-20T05:07:31.226Z,52.58
2022-12-20T05:10:39.290Z,51.55
2022-12-20T05:13:42.701Z,56.33
2022-12-20T05:16:48.527Z,50.60
2022-12-20T05:19:53.921Z,55.38
2022-12-20T05:23:17.577Z,50.00
2022-12-20T05:26:28.852Z,52.53
2022-12-20T05:29:34.948Z,57.67
2022-12-20T05:32:43.404Z,51.83
2022-12-20T05:35:46.904Z,49.88
2022-12-20T05:39:01.928Z,48.38
2022-12-20T05:42:12.524Z,49.70
2022-12-20T05:45:16.141Z,55.60
2022-12-20T05:48:28.812Z,53.17
2022-12-20T05:51:33.986Z,49.17
2022-12-20T05:55:05.771Z,51.67
2022-12-20T05:58:18.355Z,46.53
2022-12-20T06:01:34.947Z,44.92
2022-12-20T06:04:40.885Z,44.92
2022-12-20T06:07:53.860Z,52.33
2022-12-20T06:11:03.326Z,51.70
2022-12-20T06:14:10.336Z,49.03
2022-12-20T06:17:17.256Z,55.23
2022-12-20T06:20:22.702Z,47.97
2022-12-20T06:23:29.192Z,49.33
2022-12-20T06:26:47.141Z,46.78
2022-12-20T06:29:54.321Z,51.17
2022-12-20T06:33:01.854Z,52.65
2022-12-20T06:36:07.908Z,45.45
2022-12-20T06:39:11.609Z,58.75
2022-12-20T06:42:26.736Z,48.22
2022-12-20T06:45:31.738Z,52.33
2022-12-20T06:48:41.715Z,54.92
2022-12-20T06:52:11.948Z,49.72
2022-12-20T06:55:41.364Z,59.25
2022-12-20T06:59:08.167Z,51.05
2022-12-20T07:02:34.269Z,56.35
2022-12-20T07:05:57.630Z,49.25
2022-12-20T07:09:03.978Z,42.42
2022-12-20T07:12:09.862Z,53.78
2022-12-20T07:15:14.471Z,49.05
2022-12-20T07:18:17.609Z,50.25
2022-12-20T07:21:27.760Z,50.10
2022-12-20T07:24:31.059Z,45.72
2022-12-20T07:27:35.573Z,51.17
2022-12-20T07:30:40.930Z,45.22
2022-12-20T07:33:45.369Z,47.75
2022-12-20T07:36:49.156Z,46.85
2022-12-20T07:40:12.640Z,48.90
2022-12-20T07:43:25.739Z,50.15
2022-12-20T07:46:46.093Z,49.58
2022-12-20T07:49:56.391Z,49.10
2022-12-20T07:53:04.110Z,49.55
2022-12-20T07:56:12.450Z,53.53
2022-12-20T07:59:22.663Z,47.92
2022-12-20T08:02:32.587Z,48.92
2022-12-20T08:05:42.281Z,48.05
2022-12-20T08:08:48.859Z,51.53
2022-12-20T08:11:54.582Z,44.47
2022-12-20T08:14:59.518Z,41.58
2022-12-20T08:18:06.192Z,48.45
2022-12-20T08:21:10.687Z,51.95
2022-12-20T08:24:16.487Z,46.80
2022-12-20T08:27:19.781Z,55.65
2022-12-20T08:30:23.235Z,43.15
2022-12-20T08:33:27.861Z,48.50
2022-12-20T08:36:31.881Z,44.95
2022-12-20T08:39:35.305Z,47.20
2022-12-20T08:43:02.419Z,41.95
2022-12-20T08:46:31.552Z,45.35
2022-12-20T08:49:57.895Z,68.82
2022-12-20T08:53:21.221Z,59.05
2022-12-20T08:56:44.381Z,60.13
2022-12-20T08:59:47.695Z,46.33
2022-12-20T09:02:51.898Z,58.17
2022-12-20T09:05:56.953Z,48.95
2022-12-20T09:09:01.712Z,52.65
2022-12-20T09:12:05.706Z,55.83
2022-12-20T09:15:11.565Z,47.58
2022-12-20T09:18:14.998Z,46.30
2022-12-20T09:21:29.909Z,37.40
2022-12-20T09:24:33.427Z,44.80
2022-12-20T09:27:38.055Z,42.17
2022-12-20T09:30:41.315Z,44.13
2022-12-20T09:33:45.698Z,42.92
2022-12-20T09:36:50.267Z,42.13
2022-12-20T09:39:53.528Z,38.40
2022-12-20T09:42:57.336Z,39.55
2022-12-20T09:46:02.411Z,40.55
2022-12-20T09:49:05.746Z,42.28
2022-12-20T09:52:28.937Z,45.47
2022-12-20T09:55:38.049Z,40.92
2022-12-20T09:58:58.952Z,36.33
2022-12-20T10:02:19.532Z,36.55
2022-12-20T10:05:41.220Z,40.05
2022-12-20T10:08:55.608Z,37.83
2022-12-20T10:12:07.891Z,39.35
2022-12-20T10:15:31.437Z,38.65
2022-12-20T10:18:48.934Z,34.50
2022-12-20T10:22:18.604Z,40.42
2022-12-20T10:25:44.936Z,43.08
2022-12-20T10:29:08.039Z,38.50
2022-12-20T10:35:27.241Z,38.13
2022-12-20T10:38:45.748Z,40.85
2022-12-20T10:41:52.016Z,36.78
2022-12-20T10:44:56.966Z,36.20
2022-12-20T10:48:02.273Z,40.05
2022-12-20T10:51:17.234Z,36.92
2022-12-20T10:54:24.975Z,35.92
2022-12-20T10:57:33.872Z,32.30
2022-12-20T11:00:37.193Z,35.63
2022-12-20T11:03:56.267Z,73.13
2022-12-20T11:07:02.295Z,81.38
2022-12-20T11:10:21.139Z,72.50
2022-12-20T11:13:27.982Z,118.38
2022-12-20T11:16:38.087Z,49.83
2022-12-20T11:20:02.257Z,52.35
2022-12-20T11:23:24.049Z,31.00
2022-12-20T11:26:40.237Z,33.40
2022-12-20T11:30:07.716Z,30.73
2022-12-20T11:33:42.471Z,32.95
2022-12-20T11:37:18.544Z,37.65
2022-12-20T11:40:49.070Z,33.95
2022-12-20T11:44:25.414Z,35.45
2022-12-20T11:47:51.595Z,33.50
2022-12-20T11:51:03.332Z,31.13
2022-12-20T11:54:35.977Z,29.50
2022-12-20T11:58:20.363Z,32.70
2022-12-20T12:01:50.204Z,27.92
2022-12-20T12:05:21.644Z,28.23
2022-12-20T12:08:50.448Z,28.25
2022-12-20T12:12:09.613Z,30.60
2022-12-20T12:15:31.835Z,37.72
2022-12-20T12:30:37.600Z,31.70
2022-12-20T12:34:12.302Z,32.95
2022-12-20T12:37:50.180Z,28.98
2022-12-20T12:41:24.754Z,30.92
2022-12-20T12:44:44.258Z,32.17
2022-12-20T12:47:56.448Z,31.80
2022-12-20T12:51:08.444Z,29.45
2022-12-20T12:54:23.874Z,29.33
2022-12-20T12:57:28.179Z,26.88
2022-12-20T13:00:53.736Z,27.00
2022-12-20T13:04:25.077Z,27.95
2022-12-20T13:07:44.639Z,28.42
2022-12-20T13:11:29.992Z,30.85
2022-12-20T13:14:51.819Z,31.20
2022-12-20T13:18:23.606Z,31.58
2022-12-20T13:24:56.797Z,44.28
2022-12-20T13:28:50.171Z,33.33
2022-12-20T13:32:53.731Z,29.67
2022-12-20T13:36:05.140Z,29.13
2022-12-20T13:39:35.328Z,38.53
2022-12-20T13:43:01.054Z,28.02
2022-12-20T13:46:15.127Z,29.50
2022-12-20T13:49:27.041Z,37.00
2022-12-20T13:52:38.567Z,34.22
2022-12-20T13:55:44.155Z,28.48
2022-12-20T13:58:48.282Z,30.15
2022-12-20T14:01:54.872Z,31.70
2022-12-20T14:05:05.584Z,31.77
2022-12-20T14:08:16.278Z,27.92
2022-12-20T14:11:23.724Z,36.50
2022-12-20T14:14:28.605Z,24.10
2022-12-20T14:17:33.925Z,26.88
2022-12-20T14:20:38.804Z,32.72
2022-12-20T14:23:45.352Z,26.48
2022-12-20T14:27:03.345Z,30.48
2022-12-20T14:30:34.749Z,29.83
2022-12-20T14:33:47.068Z,30.63
2022-12-20T14:37:10.549Z,30.73
2022-12-20T14:40:20.604Z,33.78
2022-12-20T14:43:29.258Z,36.47
2022-12-20T14:46:36.736Z,32.75
2022-12-20T14:49:54.895Z,31.92
2022-12-20T14:52:58.831Z,34.50
2022-12-20T14:56:04.771Z,34.40
2022-12-20T14:59:20.012Z,33.47
2022-12-20T15:02:49.082Z,33.35
2022-12-20T15:05:57.776Z,32.90
2022-12-20T15:09:01.273Z,33.45
2022-12-20T15:12:11.400Z,29.35
2022-12-20T15:15:29.392Z,33.45
2022-12-20T15:18:42.142Z,33.15
2022-12-20T15:21:47.119Z,37.20
2022-12-20T15:24:53.643Z,30.67
2022-12-20T15:27:57.391Z,35.22
2022-12-20T15:31:04.720Z,36.47
2022-12-20T15:37:20.311Z,41.95
2022-12-20T15:40:24.581Z,35.45
2022-12-20T15:43:28.180Z,36.47
2022-12-20T15:46:36.555Z,30.75
2022-12-20T15:49:49.864Z,32.03
2022-12-20T15:52:57.132Z,26.65
2022-12-20T15:56:01.387Z,28.10
2022-12-20T15:59:24.448Z,32.60
2022-12-20T16:02:33.981Z,36.42
2022-12-20T16:05:40.242Z,30.38
2022-12-20T16:08:43.913Z,29.48
2022-12-20T16:11:51.475Z,29.92
2022-12-20T16:15:21.754Z,34.80
2022-12-20T16:18:46.420Z,41.40
2022-12-20T16:22:17.683Z,39.25
2022-12-20T16:25:40.844Z,42.92
2022-12-20T16:29:04.000Z,41.72
2022-12-20T16:34:45.709Z,39.97
2022-12-20T16:37:52.378Z,49.45
2022-12-20T16:40:56.415Z,45.33
2022-12-20T16:44:02.143Z,33.58
2022-12-20T16:47:06.283Z,31.83
2022-12-20T16:50:14.798Z,32.72
2022-12-20T16:53:18.031Z,33.70
2022-12-20T16:56:22.338Z,37.58
2022-12-20T16:59:26.359Z,35.03
2022-12-20T17:02:34.959Z,40.35
2022-12-20T17:05:41.778Z,42.13
2022-12-20T17:08:52.587Z,36.53
2022-12-20T17:11:56.206Z,36.58
2022-12-20T17:14:59.539Z,40.33
2022-12-20T17:18:03.151Z,38.83
2022-12-20T17:21:23.401Z,38.05
2022-12-20T17:24:26.991Z,44.10
2022-12-20T17:27:30.930Z,35.83
2022-12-20T17:30:36.999Z,36.72
2022-12-20T17:33:40.858Z,43.20
2022-12-20T17:36:46.122Z,36.92
2022-12-20T17:39:52.495Z,41.47
2022-12-20T17:43:01.515Z,41.70
2022-12-20T17:46:04.842Z,42.35
2022-12-20T17:49:09.532Z,44.10
2022-12-20T17:52:15.790Z,40.65
2022-12-20T17:55:24.149Z,37.10
2022-12-20T17:58:30.187Z,41.10
2022-12-20T18:01:38.027Z,39.40
2022-12-20T18:04:44.874Z,40.63
2022-12-20T18:07:56.804Z,42.55
2022-12-20T18:11:00.160Z,42.13
2022-12-20T18:14:04.669Z,38.38
2022-12-20T18:17:08.558Z,37.42
2022-12-20T18:20:15.814Z,41.15
2022-12-20T18:23:20.596Z,41.60
2022-12-20T18:26:26.469Z,38.60
2022-12-20T18:29:31.357Z,38.75
2022-12-20T18:32:43.630Z,40.60
2022-12-20T18:36:01.696Z,44.85
2022-12-20T18:39:09.070Z,33.55
2022-12-20T18:42:13.434Z,34.78
2022-12-20T18:45:20.100Z,34.72
2022-12-20T18:48:25.629Z,33.90
2022-12-20T18:51:36.536Z,30.95
2022-12-20T18:54:42.178Z,32.30
2022-12-20T18:58:00.702Z,33.28
2022-12-20T19:01:09.835Z,33.95
2022-12-20T19:04:24.206Z,35.58
2022-12-20T19:07:28.064Z,38.30
2022-12-20T19:10:35.923Z,31.50
2022-12-20T19:13:39.771Z,35.13
2022-12-20T19:16:43.281Z,36.42
2022-12-20T19:19:46.632Z,39.25
2022-12-20T19:22:51.285Z,37.35
2022-12-20T19:26:05.258Z,38.13
2022-12-20T19:29:11.845Z,35.67
2022-12-20T19:32:18.071Z,34.38
2022-12-20T19:35:53.639Z,39.50
2022-12-20T19:38:46.305Z,36.65
2022-12-20T19:42:22.169Z,36.55
2022-12-20T19:45:19.146Z,38.65
2022-12-20T19:48:22.716Z,41.30
2022-12-20T19:51:27.743Z,45.63
2022-12-20T19:54:31.497Z,39.65
2022-12-20T19:57:36.439Z,42.78
2022-12-20T20:00:46.601Z,45.35
2022-12-20T20:06:53.554Z,51.22
2022-12-20T20:09:57.589Z,44.20
2022-12-20T20:13:02.201Z,46.33
2022-12-20T20:16:06.645Z,35.30
2022-12-20T20:19:11.898Z,34.97
2022-12-20T20:22:22.550Z,34.47
2022-12-20T20:25:27.017Z,37.00
2022-12-20T20:28:34.044Z,30.73
2022-12-20T20:31:39.773Z,34.65
2022-12-20T20:34:44.013Z,32.78
2022-12-20T20:37:47.412Z,35.45
2022-12-20T20:40:51.716Z,39.25
2022-12-20T20:43:56.341Z,40.28
2022-12-20T20:47:00.668Z,45.55
2022-12-20T20:50:04.045Z,44.25
2022-12-20T20:53:08.310Z,42.50
2022-12-20T20:56:14.271Z,50.85
2022-12-20T20:59:19.044Z,41.15
2022-12-20T21:02:24.598Z,41.15
2022-12-20T21:08:52.328Z,42.92
2022-12-20T21:11:56.060Z,39.72
2022-12-20T21:15:21.956Z,44.40
2022-12-20T21:18:25.091Z,41.58
2022-12-20T21:21:28.937Z,41.85
2022-12-20T21:24:32.817Z,41.47
2022-12-20T21:27:36.146Z,38.53
2022-12-20T21:30:42.182Z,45.83
2022-12-20T21:33:46.218Z,45.28
2022-12-20T21:36:49.472Z,48.13
2022-12-20T21:39:52.831Z,38.58
2022-12-20T21:42:56.283Z,41.78
2022-12-20T21:46:01.377Z,45.72
2022-12-20T21:49:05.055Z,48.47
2022-12-20T21:52:08.446Z,40.53
2022-12-20T21:55:12.370Z,43.78
2022-12-20T21:58:15.956Z,39.45
2022-12-20T22:01:22.619Z,37.13
2022-12-20T22:04:25.972Z,47.72
2022-12-20T22:07:29.673Z,37.80
2022-12-20T22:10:33.052Z,39.03
2022-12-20T22:13:57.163Z,48.08
2022-12-20T22:17:21.876Z,39.58
2022-12-20T22:20:45.904Z,42.13
2022-12-20T22:24:10.633Z,41.78
2022-12-20T22:27:13.925Z,36.95
2022-12-20T22:30:17.811Z,37.60
2022-12-20T22:45:05.692Z,39.50
2022-12-20T22:48:11.328Z,42.67
2022-12-20T22:51:16.845Z,43.63
2022-12-20T22:54:20.189Z,44.70
2022-12-20T22:57:23.589Z,38.78
2022-12-20T23:00:28.397Z,37.88
2022-12-20T23:03:33.849Z,38.67
2022-12-20T23:06:37.151Z,36.70
2022-12-20T23:09:41.283Z,43.92
2022-12-20T23:13:01.874Z,41.70
2022-12-20T23:16:06.810Z,47.40
2022-12-20T23:19:11.513Z,43.65
2022-12-20T23:22:32.106Z,40.60
2022-12-20T23:25:35.638Z,44.90
2022-12-20T23:28:43.785Z,42.53
2022-12-20T23:31:48.466Z,43.47
2022-12-20T23:34:52.840Z,41.33
2022-12-20T23:37:57.719Z,39.50
2022-12-20T23:41:01.069Z,43.55
2022-12-20T23:44:06.170Z,40.50
2022-12-20T23:47:18.510Z,41.97
2022-12-20T23:50:22.291Z,39.80
2022-12-20T23:53:26.284Z,42.00
2022-12-20T23:56:29.728Z,34.92
2022-12-20T23:59:33.752Z,45.30
